CAT567 EKOD-LPPT
Flight info
| Callsign | CAT567 |
|---|---|
| Flight time | N/A |
| Altitude | 34000 |
| Route | ALS DCT EEL DCT PAM N872 MEDIL UN872 ERIGA UZ218 FUJTI DCT ATLEN DCT ABUPI DCT XAMAX |
| Aircraft | B738/M-SDE2E3FGHIRWXY/LB1 |
Departure
| Time | 2026-04-23 11:46 |
|---|---|
| Airport | Odense Hans Christian Andersen Airport (EKOD) |
Arrival
| Time | N/A |
|---|---|
| Airport | Lisbon Humberto Delgado Airport (LPPT) |
| Time | Latitude | Longitude | Altitude | Speed | Heading |
|---|---|---|---|---|---|
| 2026-04-23 11:24 | 55.47333 | 10.32891 | 62 ft | 0 kts | 6° |
| 2026-04-23 11:41 | 55.47346 | 10.32879 | 57 ft | 4 kts | 314° |
| 2026-04-23 11:42 | 55.47360 | 10.32817 | 58 ft | 7 kts | 291° |
| 2026-04-23 11:42 | 55.47392 | 10.32712 | 56 ft | 12 kts | 309° |
| 2026-04-23 11:42 | 55.47461 | 10.32589 | 58 ft | 16 kts | 332° |
| 2026-04-23 11:42 | 55.47535 | 10.32699 | 53 ft | 18 kts | 61° |
| 2026-04-23 11:43 | 55.47605 | 10.32913 | 55 ft | 21 kts | 60° |
| 2026-04-23 11:43 | 55.47679 | 10.33138 | 56 ft | 21 kts | 59° |
| 2026-04-23 11:43 | 55.47761 | 10.33382 | 55 ft | 25 kts | 59° |
| 2026-04-23 11:43 | 55.47848 | 10.33643 | 59 ft | 24 kts | 59° |
| 2026-04-23 11:44 | 55.47930 | 10.33886 | 56 ft | 23 kts | 62° |
| 2026-04-23 11:44 | 55.47973 | 10.34042 | 50 ft | 10 kts | 11° |
| 2026-04-23 11:44 | 55.47983 | 10.33995 | 52 ft | 5 kts | 230° |
| 2026-04-23 11:44 | 55.47956 | 10.33962 | 49 ft | 5 kts | 217° |
| 2026-04-23 11:45 | 55.47943 | 10.33933 | 52 ft | 0 kts | 240° |
| 2026-04-23 11:45 | 55.47853 | 10.33658 | 59 ft | 64 kts | 239° |
| 2026-04-23 11:45 | 55.47499 | 10.32595 | 61 ft | 135 kts | 240° |
| 2026-04-23 11:46 | 55.46960 | 10.30892 | 323 ft | 170 kts | 243° |
| 2026-04-23 11:46 | 55.46291 | 10.29118 | 1107 ft | 183 kts | 227° |
| 2026-04-23 11:46 | 55.45089 | 10.28094 | 1767 ft | 205 kts | 189° |
| 2026-04-23 11:46 | 55.43643 | 10.27843 | 2473 ft | 209 kts | 186° |
| 2026-04-23 11:47 | 55.42171 | 10.27480 | 2940 ft | 223 kts | 196° |
| 2026-04-23 11:47 | 55.40605 | 10.26694 | 3238 ft | 241 kts | 199° |
| 2026-04-23 11:47 | 55.38972 | 10.25784 | 3675 ft | 255 kts | 199° |
| 2026-04-23 11:47 | 55.37208 | 10.24792 | 4078 ft | 273 kts | 199° |
| 2026-04-23 11:48 | 55.35388 | 10.23765 | 4906 ft | 275 kts | 200° |
| 2026-04-23 11:48 | 55.33542 | 10.22741 | 5636 ft | 282 kts | 200° |
| 2026-04-23 11:48 | 55.31645 | 10.21691 | 6301 ft | 290 kts | 200° |
| 2026-04-23 11:48 | 55.29704 | 10.20622 | 7043 ft | 294 kts | 200° |
| 2026-04-23 11:49 | 55.27755 | 10.19550 | 7751 ft | 298 kts | 200° |
| 2026-04-23 11:49 | 55.25767 | 10.18460 | 8495 ft | 301 kts | 200° |
| 2026-04-23 11:49 | 55.23812 | 10.17388 | 9206 ft | 304 kts | 200° |
| 2026-04-23 11:49 | 55.21776 | 10.16274 | 9936 ft | 308 kts | 200° |
| 2026-04-23 11:50 | 55.19702 | 10.15140 | 10573 ft | 315 kts | 200° |